createdAt,value
2022-11-08T00:02:25.057Z,5.21
2022-11-08T00:04:52.115Z,5.16
2022-11-08T00:07:37.707Z,5.09
2022-11-08T00:10:23.951Z,4.99
2022-11-08T00:13:09.699Z,4.86
2022-11-08T00:15:39.025Z,4.85
2022-11-08T00:18:07.797Z,4.89
2022-11-08T00:20:34.890Z,4.85
2022-11-08T00:23:02.006Z,4.76
2022-11-08T00:25:28.676Z,4.75
2022-11-08T00:27:55.372Z,4.68
2022-11-08T00:30:22.033Z,4.53
2022-11-08T00:32:48.703Z,4.46
2022-11-08T00:35:15.492Z,4.45
2022-11-08T00:37:42.237Z,4.44
2022-11-08T00:40:09.409Z,4.42
2022-11-08T00:42:36.159Z,4.41
2022-11-08T00:45:03.073Z,4.42
2022-11-08T00:47:29.776Z,4.40
2022-11-08T00:49:56.467Z,4.40
2022-11-08T00:52:23.170Z,4.41
2022-11-08T00:54:49.839Z,4.44
2022-11-08T00:57:16.544Z,4.46
2022-11-08T00:59:43.206Z,4.46
2022-11-08T01:02:09.921Z,4.50
2022-11-08T01:04:36.707Z,4.43
2022-11-08T01:07:03.435Z,4.48
2022-11-08T01:09:30.094Z,4.60
2022-11-08T01:11:56.814Z,4.61
2022-11-08T01:14:23.467Z,4.61
2022-11-08T01:16:50.281Z,4.62
2022-11-08T01:19:17.032Z,4.57
2022-11-08T01:21:43.704Z,4.52
2022-11-08T01:24:10.353Z,4.55
2022-11-08T01:26:37.031Z,4.47
2022-11-08T01:29:03.688Z,4.38
2022-11-08T01:31:31.992Z,4.34
2022-11-08T01:33:59.474Z,4.30
2022-11-08T01:36:28.222Z,4.28
2022-11-08T01:38:55.905Z,4.27
2022-11-08T01:41:24.587Z,4.24
2022-11-08T01:43:53.624Z,4.20
2022-11-08T01:46:20.286Z,4.16
2022-11-08T01:49:17.287Z,4.13
2022-11-08T01:51:55.946Z,4.09
2022-11-08T01:54:41.686Z,4.07
2022-11-08T01:57:12.679Z,4.09
2022-11-08T01:59:42.041Z,4.12
2022-11-08T02:02:10.125Z,4.12
2022-11-08T02:58:48.027Z,3.68
2022-11-08T03:01:14.824Z,3.66
2022-11-08T03:03:41.772Z,3.66
2022-11-08T03:06:08.499Z,3.57
2022-11-08T03:08:35.176Z,3.62
2022-11-08T03:11:01.823Z,3.61
2022-11-08T03:13:28.463Z,3.60
2022-11-08T03:15:55.176Z,3.49
2022-11-08T03:18:21.807Z,3.44
2022-11-08T03:20:48.457Z,3.38
2022-11-08T03:23:15.105Z,3.44
2022-11-08T03:25:41.726Z,3.42
2022-11-08T03:28:09.232Z,3.34
2022-11-08T03:30:37.151Z,3.38
2022-11-08T03:33:04.936Z,3.36
2022-11-08T03:35:31.952Z,3.40
2022-11-08T03:37:58.736Z,3.47
2022-11-08T03:40:26.564Z,3.61
2022-11-08T03:42:55.391Z,3.70
2022-11-08T03:45:22.047Z,3.83
2022-11-08T03:47:48.734Z,3.98
2022-11-08T03:50:17.160Z,4.28
2022-11-08T03:52:55.558Z,4.38
2022-11-08T03:55:24.951Z,4.45
2022-11-08T03:57:52.134Z,4.50
2022-11-08T04:00:22.590Z,4.56
2022-11-08T04:02:49.708Z,4.60
2022-11-08T04:05:17.112Z,4.56
2022-11-08T04:07:43.774Z,4.53
2022-11-08T04:10:11.987Z,4.51
2022-11-08T04:12:58.717Z,4.55
2022-11-08T04:15:25.891Z,4.47
2022-11-08T04:18:12.695Z,4.43
2022-11-08T04:21:07.773Z,4.38
2022-11-08T04:23:36.319Z,4.41
2022-11-08T04:26:06.671Z,4.36
2022-11-08T04:28:36.646Z,4.35
2022-11-08T04:31:06.556Z,4.27
2022-11-08T04:33:33.497Z,4.31
2022-11-08T04:36:05.645Z,4.31
2022-11-08T04:38:32.847Z,4.24
2022-11-08T04:41:04.315Z,4.18
2022-11-08T04:43:31.357Z,4.19
2022-11-08T04:46:12.742Z,4.19
2022-11-08T04:48:40.276Z,4.16
2022-11-08T04:51:21.982Z,4.01
2022-11-08T04:53:49.592Z,3.87
2022-11-08T04:56:19.619Z,3.69
2022-11-08T04:58:49.186Z,3.70
2022-11-08T05:01:18.646Z,3.59
2022-11-08T05:03:47.185Z,3.56
2022-11-08T05:06:17.287Z,3.61
2022-11-08T05:08:44.215Z,3.49
2022-11-08T05:11:20.584Z,3.52
2022-11-08T05:13:47.746Z,3.44
2022-11-08T05:16:20.412Z,3.35
2022-11-08T05:18:47.627Z,3.26
2022-11-08T05:21:35.970Z,2.95
2022-11-08T05:24:04.420Z,2.66
2022-11-08T05:26:34.213Z,2.63
2022-11-08T05:29:00.820Z,2.69
2022-11-08T05:31:27.476Z,2.63
2022-11-08T05:33:54.144Z,2.50
2022-11-08T05:36:20.868Z,2.53
2022-11-08T05:38:47.526Z,2.69
2022-11-08T05:41:16.966Z,2.82
2022-11-08T05:43:46.564Z,2.88
2022-11-08T05:46:13.822Z,2.76
2022-11-08T05:48:42.813Z,2.80
2022-11-08T05:51:10.481Z,2.78
2022-11-08T05:53:37.158Z,2.75
2022-11-08T05:56:04.897Z,2.68
2022-11-08T05:58:33.123Z,2.65
2022-11-08T06:01:04.800Z,2.48
2022-11-08T06:03:31.807Z,2.44
2022-11-08T06:06:16.097Z,2.48
2022-11-08T06:08:47.511Z,2.44
2022-11-08T06:11:22.983Z,2.50
2022-11-08T06:13:50.408Z,2.52
2022-11-08T06:16:21.543Z,2.53
2022-11-08T06:18:48.755Z,2.58
2022-11-08T06:21:17.760Z,2.63
2022-11-08T06:23:44.978Z,2.71
2022-11-08T06:26:12.130Z,2.76
2022-11-08T06:28:38.845Z,2.72
2022-11-08T06:31:05.798Z,2.79
2022-11-08T06:33:32.616Z,2.84
2022-11-08T06:35:59.285Z,2.84
2022-11-08T06:38:26.035Z,2.77
2022-11-08T06:40:52.640Z,2.71
2022-11-08T06:43:20.425Z,2.80
2022-11-08T06:45:47.862Z,2.87
2022-11-08T06:48:14.579Z,2.93
2022-11-08T06:50:42.150Z,2.95
2022-11-08T06:53:13.849Z,2.96
2022-11-08T06:55:40.564Z,3.06
2022-11-08T06:58:07.272Z,3.23
2022-11-08T07:00:34.057Z,3.44
2022-11-08T07:03:03.725Z,3.52
2022-11-08T07:05:34.263Z,3.70
2022-11-08T07:08:01.578Z,3.82
2022-11-08T07:10:31.408Z,4.11
2022-11-08T07:13:04.173Z,4.39
2022-11-08T07:15:33.163Z,5.08
2022-11-08T07:18:08.941Z,5.57
2022-11-08T07:20:36.271Z,6.00
2022-11-08T07:23:05.754Z,6.31
2022-11-08T07:25:32.932Z,6.62
2022-11-08T07:28:02.076Z,7.06
2022-11-08T07:30:29.854Z,7.41
2022-11-08T07:32:56.818Z,7.25
2022-11-08T07:35:24.211Z,7.46
2022-11-08T07:37:51.058Z,7.85
2022-11-08T07:40:17.780Z,8.32
2022-11-08T07:43:09.946Z,8.49
2022-11-08T07:45:31.157Z,8.52
2022-11-08T07:48:09.516Z,8.18
2022-11-08T07:50:38.058Z,7.78
2022-11-08T07:53:04.808Z,7.74
2022-11-08T07:55:31.442Z,7.82
2022-11-08T07:58:02.220Z,8.10
2022-11-08T08:00:30.028Z,8.48
2022-11-08T08:03:00.819Z,8.61
2022-11-08T08:05:28.986Z,8.58
2022-11-08T08:07:59.681Z,8.44
2022-11-08T08:10:28.073Z,8.50
2022-11-08T08:12:56.566Z,8.63
2022-11-08T08:15:24.135Z,8.82
2022-11-08T08:17:51.033Z,8.93
2022-11-08T08:20:17.751Z,9.53
2022-11-08T08:22:49.564Z,10.03
2022-11-08T08:25:17.640Z,10.33
2022-11-08T08:27:48.807Z,10.30
2022-11-08T08:30:17.405Z,10.28
2022-11-08T08:32:48.002Z,10.57
2022-11-08T08:35:20.003Z,10.98
2022-11-08T08:37:46.640Z,11.20
2022-11-08T08:40:13.449Z,11.51
2022-11-08T08:42:40.164Z,11.99
2022-11-08T08:45:12.087Z,12.23
2022-11-08T08:47:41.238Z,12.18
2022-11-08T08:50:08.177Z,12.21
2022-11-08T08:52:35.080Z,12.38
2022-11-08T08:55:01.882Z,12.60
2022-11-08T08:57:28.583Z,12.70
2022-11-08T09:02:42.923Z,12.81
2022-11-08T09:05:10.975Z,12.74
2022-11-08T09:07:37.991Z,12.54
2022-11-08T09:10:06.092Z,12.18
2022-11-08T09:12:33.716Z,11.87
2022-11-08T09:15:00.671Z,11.71
2022-11-08T09:17:28.605Z,12.22
2022-11-08T09:19:57.365Z,12.38
2022-11-08T09:22:24.488Z,12.53
2022-11-08T09:24:51.330Z,12.67
2022-11-08T09:27:18.005Z,12.88
2022-11-08T09:29:44.715Z,12.63
2022-11-08T09:32:11.457Z,12.14
2022-11-08T09:34:38.145Z,11.89
2022-11-08T09:37:04.775Z,11.72
2022-11-08T09:39:31.429Z,11.50
2022-11-08T09:41:58.006Z,11.37
2022-11-08T09:44:33.606Z,11.27
2022-11-08T09:47:11.697Z,11.11
2022-11-08T09:49:45.539Z,11.24
2022-11-08T09:52:25.036Z,11.19
2022-11-08T09:54:56.060Z,11.21
2022-11-08T09:57:44.018Z,11.28
2022-11-08T10:00:13.071Z,11.23
2022-11-08T10:02:39.807Z,11.22
2022-11-08T10:05:13.007Z,11.33
2022-11-08T10:07:51.957Z,11.60
2022-11-08T10:10:47.755Z,12.08
2022-11-08T10:13:40.284Z,12.08
2022-11-08T10:16:10.065Z,12.04
2022-11-08T10:19:00.516Z,12.14
2022-11-08T10:21:45.871Z,12.43
2022-11-08T10:24:26.603Z,12.83
2022-11-08T10:26:57.714Z,12.95
2022-11-08T10:29:34.373Z,12.92
2022-11-08T10:32:29.146Z,13.31
2022-11-08T10:35:12.663Z,13.58
2022-11-08T10:37:42.299Z,13.71
2022-11-08T10:40:16.039Z,13.81
2022-11-08T10:42:51.136Z,13.75
2022-11-08T10:45:17.780Z,13.51
2022-11-08T10:47:46.820Z,13.00
2022-11-08T10:50:15.504Z,12.75
2022-11-08T10:52:59.962Z,12.59
2022-11-08T10:55:33.539Z,12.56
2022-11-08T10:58:00.587Z,12.52
2022-11-08T11:00:30.264Z,12.49
2022-11-08T11:03:02.535Z,12.53
2022-11-08T11:05:31.180Z,12.43
2022-11-08T11:08:03.065Z,12.28
2022-11-08T11:10:38.218Z,12.20
2022-11-08T11:13:06.285Z,12.25
2022-11-08T11:18:01.487Z,11.94
2022-11-08T11:20:28.827Z,11.74
2022-11-08T11:22:55.472Z,11.63
2022-11-08T11:25:24.144Z,11.53
2022-11-08T11:27:55.259Z,11.57
2022-11-08T11:30:28.316Z,11.88
2022-11-08T11:33:24.138Z,12.35
2022-11-08T11:36:15.571Z,13.08
2022-11-08T11:39:00.369Z,13.74
2022-11-08T11:41:44.349Z,14.13
2022-11-08T11:44:25.248Z,14.50
2022-11-08T11:46:57.745Z,14.82
2022-11-08T11:49:27.281Z,15.09
2022-11-08T11:51:55.192Z,14.85
2022-11-08T11:54:29.940Z,14.51
2022-11-08T11:57:13.857Z,13.96
2022-11-08T11:59:49.762Z,13.44
2022-11-08T12:02:54.319Z,13.17
2022-11-08T12:05:42.165Z,12.93
2022-11-08T12:08:22.940Z,12.91
2022-11-08T12:11:30.798Z,12.76
2022-11-08T12:14:03.426Z,12.53
2022-11-08T12:16:41.358Z,12.24
2022-11-08T12:19:35.925Z,12.12
2022-11-08T12:22:02.539Z,12.18
2022-11-08T12:24:32.126Z,12.25
2022-11-08T12:27:01.892Z,12.11
2022-11-08T12:29:58.089Z,11.91
2022-11-08T12:32:33.839Z,11.84
2022-11-08T12:35:03.529Z,11.88
2022-11-08T12:38:15.655Z,11.84
2022-11-08T12:40:59.266Z,11.74
2022-11-08T12:43:43.991Z,11.83
2022-11-08T12:46:21.072Z,11.94
2022-11-08T12:49:15.018Z,11.82
2022-11-08T12:52:00.086Z,11.80
2022-11-08T12:54:34.676Z,12.42
2022-11-08T12:57:08.665Z,12.57
2022-11-08T13:00:04.585Z,12.26
2022-11-08T13:02:35.742Z,12.09
2022-11-08T13:05:24.609Z,11.98
2022-11-08T13:08:06.898Z,12.08
2022-11-08T13:10:33.441Z,12.08
2022-11-08T13:13:29.250Z,12.10
2022-11-08T13:16:18.809Z,12.04
2022-11-08T13:18:48.934Z,11.85
2022-11-08T13:21:25.955Z,11.73
2022-11-08T13:24:42.215Z,11.62
2022-11-08T13:27:21.484Z,11.50
2022-11-08T13:29:48.268Z,11.36
2022-11-08T13:32:54.040Z,11.24
2022-11-08T13:35:46.223Z,11.17
2022-11-08T13:38:24.913Z,11.13
2022-11-08T13:41:16.767Z,11.17
2022-11-08T13:43:44.400Z,11.18
2022-11-08T13:46:20.250Z,11.25
2022-11-08T13:49:03.476Z,11.32
2022-11-08T13:51:31.881Z,11.41
2022-11-08T13:54:05.809Z,11.43
2022-11-08T13:56:54.243Z,11.41
2022-11-08T13:59:30.199Z,11.38
2022-11-08T14:02:05.901Z,11.44
2022-11-08T14:04:40.339Z,11.50
2022-11-08T14:07:07.025Z,11.54
2022-11-08T14:09:45.707Z,11.59
2022-11-08T14:12:25.749Z,11.52
2022-11-08T14:15:14.979Z,11.49
2022-11-08T14:17:54.759Z,11.46
2022-11-08T14:20:34.933Z,11.42
2022-11-08T14:23:23.952Z,11.39
2022-11-08T14:25:56.953Z,11.39
2022-11-08T14:28:30.448Z,11.42
2022-11-08T14:30:59.255Z,11.46
2022-11-08T14:33:28.594Z,11.44
2022-11-08T14:36:01.710Z,11.45
2022-11-08T14:38:31.233Z,11.45
2022-11-08T14:41:00.948Z,11.48
2022-11-08T14:43:28.790Z,11.49
2022-11-08T14:45:58.265Z,11.49
2022-11-08T14:48:28.909Z,11.54
2022-11-08T14:51:04.463Z,11.56
2022-11-08T14:53:33.208Z,11.53
2022-11-08T14:56:20.110Z,11.53
2022-11-08T14:58:48.639Z,11.63
2022-11-08T15:01:19.603Z,11.76
2022-11-08T15:04:02.152Z,11.86
2022-11-08T15:06:40.032Z,11.84
2022-11-08T15:09:15.487Z,11.80
2022-11-08T15:11:43.027Z,11.73
2022-11-08T15:14:17.283Z,11.66
2022-11-08T15:16:50.047Z,11.63
2022-11-08T15:19:19.723Z,11.59
2022-11-08T15:21:49.492Z,11.51
2022-11-08T15:24:17.698Z,11.39
2022-11-08T15:27:07.445Z,11.34
2022-11-08T15:29:59.431Z,11.27
2022-11-08T15:32:27.011Z,11.16
2022-11-08T15:34:56.955Z,11.09
2022-11-08T15:37:29.788Z,11.04
2022-11-08T15:40:01.668Z,10.98
2022-11-08T15:42:28.549Z,10.94
2022-11-08T15:45:13.356Z,10.88
2022-11-08T15:47:42.963Z,10.81
2022-11-08T15:50:22.969Z,10.74
2022-11-08T15:52:52.491Z,10.70
2022-11-08T15:55:26.516Z,10.63
2022-11-08T15:57:54.588Z,10.57
2022-11-08T16:00:28.615Z,10.55
2022-11-08T16:02:56.051Z,10.49
2022-11-08T16:05:33.615Z,10.44
2022-11-08T16:08:00.515Z,10.43
2022-11-08T16:10:36.741Z,10.40
2022-11-08T16:13:05.187Z,10.36
2022-11-08T16:15:34.672Z,10.34
2022-11-08T16:18:02.453Z,10.31
2022-11-08T16:20:31.467Z,10.29
2022-11-08T16:22:59.997Z,10.22
2022-11-08T16:25:28.656Z,10.18
2022-11-08T16:28:08.559Z,10.15
2022-11-08T16:30:35.986Z,10.12
2022-11-08T16:33:16.249Z,10.11
2022-11-08T16:35:42.931Z,10.06
2022-11-08T16:38:10.762Z,10.05
2022-11-08T16:40:37.401Z,10.04
2022-11-08T16:43:04.067Z,10.02
2022-11-08T16:46:03.265Z,9.99
2022-11-08T16:48:24.508Z,9.96
2022-11-08T16:50:51.987Z,9.95
2022-11-08T16:53:21.315Z,9.94
2022-11-08T16:55:48.265Z,9.90
2022-11-08T16:58:15.013Z,9.82
2022-11-08T17:00:43.030Z,9.58
2022-11-08T17:03:22.204Z,9.38
2022-11-08T17:05:49.316Z,9.21
2022-11-08T17:08:17.097Z,9.07
2022-11-08T17:10:44.511Z,9.10
2022-11-08T17:13:16.176Z,9.25
2022-11-08T17:15:43.412Z,9.36
2022-11-08T17:18:15.534Z,9.47
2022-11-08T17:20:42.711Z,9.50
2022-11-08T17:23:11.105Z,9.52
2022-11-08T17:25:43.120Z,9.55
2022-11-08T17:28:11.817Z,9.53
2022-11-08T17:30:44.109Z,9.51
2022-11-08T17:33:13.254Z,9.47
2022-11-08T17:35:44.103Z,9.47
2022-11-08T17:38:11.865Z,9.48
2022-11-08T17:40:38.735Z,9.51
2022-11-08T17:43:05.348Z,9.52
2022-11-08T17:45:32.058Z,9.49
2022-11-08T17:47:58.763Z,9.45
2022-11-08T17:50:25.412Z,9.35
2022-11-08T17:52:55.233Z,9.25
2022-11-08T17:55:21.933Z,9.08
2022-11-08T17:57:48.589Z,8.80
2022-11-08T18:00:16.407Z,8.58
2022-11-08T18:02:44.879Z,8.41
2022-11-08T18:05:11.546Z,8.23
2022-11-08T18:07:38.503Z,8.24
2022-11-08T18:10:06.966Z,8.41
2022-11-08T18:12:33.799Z,8.58
2022-11-08T18:15:01.087Z,8.68
2022-11-08T18:17:27.752Z,8.82
2022-11-08T18:19:54.372Z,8.91
2022-11-08T18:22:21.631Z,8.91
2022-11-08T18:24:50.128Z,8.75
2022-11-08T18:27:17.407Z,8.61
2022-11-08T18:29:44.291Z,8.47
2022-11-08T18:32:10.941Z,8.37
2022-11-08T18:34:37.587Z,8.42
2022-11-08T18:37:04.293Z,8.36
2022-11-08T18:39:30.990Z,8.22
2022-11-08T18:41:57.647Z,8.20
2022-11-08T18:44:24.259Z,8.23
2022-11-08T18:46:51.006Z,8.22
2022-11-08T18:49:17.645Z,8.06
2022-11-08T18:51:44.290Z,7.88
2022-11-08T18:54:11.258Z,7.73
2022-11-08T18:56:38.482Z,7.68
2022-11-08T18:59:05.266Z,7.73
2022-11-08T19:01:32.002Z,7.72
2022-11-08T19:03:58.707Z,7.73
2022-11-08T19:06:25.913Z,7.68
2022-11-08T19:08:52.695Z,7.67
2022-11-08T19:11:22.896Z,7.58
2022-11-08T19:13:49.619Z,7.54
2022-11-08T19:16:19.366Z,7.55
2022-11-08T19:18:46.896Z,7.54
2022-11-08T19:21:21.202Z,7.52
2022-11-08T19:23:48.764Z,7.54
2022-11-08T19:26:24.409Z,7.64
2022-11-08T19:28:53.889Z,8.02
2022-11-08T19:31:22.358Z,8.31
2022-11-08T19:33:51.575Z,8.47
2022-11-08T19:36:21.364Z,8.58
2022-11-08T19:38:48.333Z,8.71
2022-11-08T19:41:18.758Z,8.81
2022-11-08T19:43:46.202Z,8.86
2022-11-08T19:46:21.372Z,8.75
2022-11-08T19:48:50.420Z,8.49
2022-11-08T19:51:19.727Z,8.10
2022-11-08T19:53:46.874Z,7.93
2022-11-08T19:56:18.930Z,8.07
2022-11-08T19:58:46.131Z,8.34
2022-11-08T20:01:35.779Z,8.56
2022-11-08T20:04:04.608Z,8.67
2022-11-08T20:06:32.366Z,8.72
2022-11-08T20:09:00.132Z,8.76
2022-11-08T20:11:32.710Z,8.79
2022-11-08T20:14:00.353Z,8.76
2022-11-08T20:16:32.470Z,8.67
2022-11-08T20:19:08.450Z,8.53
2022-11-08T20:21:35.467Z,8.30
2022-11-08T20:24:02.097Z,7.92
2022-11-08T20:26:28.786Z,7.61
2022-11-08T20:28:57.055Z,7.47
2022-11-08T20:31:25.603Z,7.27
2022-11-08T20:33:53.600Z,7.29
2022-11-08T20:36:22.948Z,7.31
2022-11-08T20:38:50.464Z,7.47
2022-11-08T20:41:18.004Z,7.64
2022-11-08T20:43:47.029Z,7.55
2022-11-08T20:46:18.814Z,7.42
2022-11-08T20:48:51.391Z,7.33
2022-11-08T20:51:19.957Z,7.48
2022-11-08T20:53:47.557Z,7.79
2022-11-08T20:56:19.559Z,8.08
2022-11-08T20:58:47.784Z,8.27
2022-11-08T21:01:17.233Z,8.44
2022-11-08T21:03:47.545Z,8.63
2022-11-08T21:06:19.871Z,8.62
2022-11-08T21:09:12.136Z,8.40
2022-11-08T21:11:35.498Z,8.05
2022-11-08T21:14:03.758Z,7.77
2022-11-08T21:16:38.172Z,7.66
2022-11-08T21:19:14.055Z,7.70
2022-11-08T21:21:40.826Z,7.69
2022-11-08T21:24:07.896Z,7.64
2022-11-08T21:26:36.530Z,7.68
2022-11-08T21:29:05.229Z,7.72
2022-11-08T21:31:32.521Z,7.90
2022-11-08T21:33:59.673Z,8.16
2022-11-08T21:36:27.063Z,8.37
2022-11-08T21:38:56.503Z,8.48
2022-11-08T21:41:23.196Z,8.54
2022-11-08T21:43:50.239Z,8.46
2022-11-08T21:46:18.844Z,8.22
2022-11-08T21:48:46.446Z,8.10
2022-11-08T21:51:13.868Z,7.97
2022-11-08T21:53:52.360Z,7.64
2022-11-08T21:56:21.239Z,7.53
2022-11-08T21:58:48.229Z,7.38
2022-11-08T22:01:15.351Z,7.10
2022-11-08T22:03:42.092Z,6.94
2022-11-08T22:06:09.052Z,7.13
2022-11-08T22:08:35.929Z,7.35
2022-11-08T22:11:02.575Z,7.63
2022-11-08T22:13:29.515Z,7.87
2022-11-08T22:15:56.482Z,8.03
2022-11-08T22:18:36.900Z,8.09
2022-11-08T22:21:28.975Z,8.24
2022-11-08T22:23:57.100Z,8.41
2022-11-08T22:26:23.800Z,8.53
2022-11-08T22:28:50.591Z,8.66
2022-11-08T22:31:17.415Z,8.72
2022-11-08T22:33:44.269Z,8.72
2022-11-08T22:36:11.923Z,8.76
2022-11-08T22:38:39.244Z,8.87
2022-11-08T22:41:07.122Z,8.84
2022-11-08T22:43:36.355Z,8.88
2022-11-08T22:46:03.702Z,8.93
2022-11-08T22:48:30.408Z,9.00
2022-11-08T22:50:57.565Z,9.06
2022-11-08T22:53:24.228Z,9.14
2022-11-08T22:55:50.891Z,9.14
2022-11-08T22:58:17.781Z,9.15
2022-11-08T23:00:44.476Z,9.33
2022-11-08T23:03:11.096Z,9.37
2022-11-08T23:05:37.729Z,9.43
2022-11-08T23:08:06.969Z,9.46
2022-11-08T23:10:54.170Z,9.45
2022-11-08T23:13:39.243Z,9.47
2022-11-08T23:16:24.667Z,9.49
2022-11-08T23:19:09.969Z,9.52
2022-11-08T23:21:55.169Z,9.49
2022-11-08T23:24:21.906Z,9.47
2022-11-08T23:27:08.141Z,9.45
2022-11-08T23:29:53.772Z,9.37
2022-11-08T23:32:20.871Z,9.35
2022-11-08T23:34:47.572Z,9.31
2022-11-08T23:37:14.726Z,9.30
2022-11-08T23:40:00.383Z,9.34
2022-11-08T23:42:45.846Z,9.38
2022-11-08T23:45:12.519Z,9.47
2022-11-08T23:47:39.197Z,9.50
2022-11-08T23:50:06.427Z,9.43
2022-11-08T23:52:34.947Z,9.43
2022-11-08T23:55:03.280Z,9.40
2022-11-08T23:57:30.908Z,9.37
2022-11-08T23:59:57.664Z,9.35
